Time;durP1;ratioP1;P1;durP2;ratioP2;P2;SDS_P1;SDS_P2;PMS_P1;PMS_P2;Temp;Humidity;BMP_temperature;BMP_pressure;BME280_temperature;BME280_humidity;BME280_pressure;Samples;Min_cycle;Max_cycle;Signal;HPM_P1;HPM_P2
2022/01/04 00:00:53;;;;;;;7.30;6.60;;;;;;;17.44;42.15;97951.30;1729135;82;21450;-65
2022/01/04 00:03:20;;;;;;;6.72;6.03;;;;;;;17.48;41.99;97953.78;1732927;82;20970;-65
2022/01/04 00:05:46;;;;;;;6.55;5.97;;;;;;;17.50;41.87;97953.52;1726505;82;21171;-65
2022/01/04 00:08:14;;;;;;;7.45;6.08;;;;;;;17.52;41.78;97948.73;1792318;79;20840;-65
2022/01/04 00:10:42;;;;;;;6.45;5.78;;;;;;;17.46;41.80;97949.72;1792222;79;20994;-64
2022/01/04 00:13:23;;;;;;;6.90;6.30;;;;;;;17.38;41.78;97953.67;1800175;79;20954;-65
2022/01/04 00:15:55;;;;;;;6.95;6.25;;;;;;;17.33;41.82;97960.33;1797706;79;20920;-66
2022/01/04 00:18:24;;;;;;;7.45;6.62;;;;;;;17.28;41.86;97960.27;1792094;79;40171;-66
2022/01/04 00:20:51;;;;;;;8.48;6.75;;;;;;;17.27;41.84;97960.78;1789550;79;20956;-65
2022/01/04 00:23:18;;;;;;;6.75;6.05;;;;;;;17.26;41.86;97963.18;1771220;79;20931;-65
2022/01/04 00:25:44;;;;;;;8.38;7.53;;;;;;;17.28;41.83;97957.58;1794992;79;21002;-65
2022/01/04 00:28:12;;;;;;;6.97;5.92;;;;;;;17.18;41.92;97960.92;1796753;79;21453;-65
2022/01/04 00:30:39;;;;;;;8.23;6.40;;;;;;;17.19;41.93;97962.56;1796928;79;21137;-64
2022/01/04 00:33:09;;;;;;;6.72;5.60;;;;;;;17.24;41.85;97968.00;1801712;79;20924;-65
2022/01/04 00:35:35;;;;;;;6.80;5.80;;;;;;;17.44;41.42;97974.70;1798404;79;20911;-65
2022/01/04 00:38:01;;;;;;;8.15;6.50;;;;;;;17.16;41.94;97968.95;1796756;79;20974;-66
2022/01/04 00:40:28;;;;;;;6.33;5.70;;;;;;;17.20;41.84;97980.32;1761195;81;21556;-66
2022/01/04 00:42:57;;;;;;;6.78;5.90;;;;;;;17.17;41.96;97977.30;1732555;81;21395;-66
2022/01/04 00:45:26;;;;;;;7.25;5.60;;;;;;;17.10;42.01;97980.16;1738751;82;21022;-64
2022/01/04 00:50:22;;;;;;;7.70;5.72;;;;;;;17.05;42.05;97977.95;1742188;81;20927;-65
2022/01/04 00:52:49;;;;;;;8.10;6.20;;;;;;;17.07;42.05;97982.02;1750338;81;21022;-64
2022/01/04 00:55:16;;;;;;;7.12;5.85;;;;;;;17.11;41.97;97975.08;1752464;80;21098;-64
2022/01/04 00:57:42;;;;;;;8.40;6.03;;;;;;;17.11;41.97;97975.08;1758195;80;21545;-65
2022/01/04 01:00:10;;;;;;;8.80;5.87;;;;;;;17.12;42.00;97975.89;1729546;80;21038;-65
2022/01/04 01:02:37;;;;;;;8.05;5.33;;;;;;;17.18;41.90;97981.63;1747599;81;21018;-65
2022/01/04 01:05:05;;;;;;;6.85;4.58;;;;;;;17.13;41.92;97971.61;1761308;81;20943;-65
2022/01/04 01:07:33;;;;;;;7.65;4.78;;;;;;;17.11;41.87;97969.70;1713975;82;21149;-65
2022/01/04 01:10:35;;;;;;;5.40;4.65;;;;;;;17.03;41.93;97974.16;1724733;82;20919;-64
2022/01/04 01:12:41;;;;;;;6.40;4.50;;;;;;;17.01;41.98;97973.59;1759673;80;20966;-65
2022/01/04 01:15:10;;;;;;;5.35;4.35;;;;;;;17.06;41.94;97969.64;1733107;80;21562;-65
2022/01/04 01:17:37;;;;;;;5.35;4.40;;;;;;;17.07;41.92;97965.90;1735802;81;21398;-65
2022/01/04 01:20:07;;;;;;;7.00;4.55;;;;;;;17.15;41.79;97963.31;1738508;81;20899;-66
2022/01/04 01:22:35;;;;;;;7.08;4.53;;;;;;;17.13;41.73;97970.27;1742009;81;21389;-65
2022/01/04 01:25:02;;;;;;;7.12;4.28;;;;;;;17.20;41.66;97971.44;1741205;81;21068;-65
2022/01/04 01:27:28;;;;;;;5.47;4.35;;;;;;;17.21;41.57;97974.39;1741329;81;20989;-67
2022/01/04 01:29:56;;;;;;;5.58;3.85;;;;;;;17.21;41.56;97975.73;1751115;80;20918;-65
2022/01/04 01:32:22;;;;;;;5.83;4.33;;;;;;;17.25;41.42;97981.73;1789914;78;21152;-65
2022/01/04 01:34:49;;;;;;;5.17;3.62;;;;;;;17.24;41.35;97980.09;1780679;78;20873;-65
2022/01/04 01:37:17;;;;;;;4.37;3.45;;;;;;;17.25;41.31;97972.33;1699112;82;21535;-64
2022/01/04 01:39:45;;;;;;;5.87;3.67;;;;;;;17.21;41.30;97977.90;1710821;82;20951;-64
2022/01/04 01:42:11;;;;;;;5.50;4.22;;;;;;;17.22;41.34;97980.87;1708414;82;20903;-64
2022/01/04 01:44:39;;;;;;;9.33;4.55;;;;;;;17.23;41.37;97981.14;1699767;82;21546;-64
2022/01/04 01:47:07;;;;;;;5.58;4.08;;;;;;;17.14;41.62;97980.48;1716454;82;20904;-65
2022/01/04 01:49:34;;;;;;;7.47;5.50;;;;;;;17.15;41.61;97976.19;1710140;82;20979;-63
2022/01/04 01:52:00;;;;;;;6.65;5.25;;;;;;;17.12;41.60;97975.89;1774314;79;20990;-65
2022/01/04 01:54:27;;;;;;;6.35;4.60;;;;;;;17.11;41.58;97977.77;1764438;78;20935;-66
2022/01/04 01:56:55;;;;;;;5.08;4.25;;;;;;;17.11;41.50;97976.42;1801783;78;21164;-64
2022/01/04 01:59:22;;;;;;;6.80;4.62;;;;;;;17.11;41.64;97975.59;1784105;79;20959;-65
2022/01/04 02:01:50;;;;;;;7.30;4.87;;;;;;;17.12;41.65;97976.72;1790512;78;21050;-67
2022/01/04 02:04:16;;;;;;;8.28;5.03;;;;;;;17.13;41.62;97970.78;1788606;78;20940;-66
2022/01/04 02:06:43;;;;;;;8.25;5.10;;;;;;;17.05;41.75;97974.71;1779118;79;20994;-64
2022/01/04 02:09:09;;;;;;;5.92;4.95;;;;;;;17.06;41.73;97968.30;1790157;78;21142;-65
2022/01/04 02:11:36;;;;;;;8.60;4.90;;;;;;;17.03;41.78;97968.78;1791285;78;21434;-64
2022/01/04 02:14:02;;;;;;;9.55;4.58;;;;;;;17.06;41.76;97961.58;1708485;82;20998;-65
2022/01/04 02:16:31;;;;;;;8.75;4.58;;;;;;;17.14;41.67;97959.81;1715550;82;21017;-65
2022/01/04 02:19:03;;;;;;;8.10;4.65;;;;;;;17.22;41.55;97962.59;1720467;82;21139;-65
2022/01/04 02:21:30;;;;;;;6.80;5.03;;;;;;;17.28;41.42;97967.77;1746277;80;21131;-65
2022/01/04 02:23:58;;;;;;;5.58;4.03;;;;;;;17.31;41.40;97974.55;1790159;78;20899;-63
2022/01/04 02:26:25;;;;;;;10.80;5.87;;;;;;;17.16;41.55;97975.14;1788933;79;21547;-66
2022/01/04 02:28:51;;;;;;;6.37;4.03;;;;;;;17.14;41.64;97975.93;1805449;78;21004;-66
2022/01/04 02:31:18;;;;;;;9.38;5.50;;;;;;;17.12;41.70;97967.31;1790972;78;20966;-66
2022/01/04 02:33:45;;;;;;;11.05;4.87;;;;;;;17.18;41.59;97974.91;1808445;78;21087;-67
2022/01/04 02:36:11;;;;;;;7.55;4.50;;;;;;;17.15;41.61;97971.38;1798251;79;20913;-65
2022/01/04 02:38:37;;;;;;;5.42;4.12;;;;;;;17.03;41.83;97971.47;1808876;78;21412;-65
2022/01/04 02:41:04;;;;;;;7.22;4.17;;;;;;;17.03;41.88;97974.16;1799611;78;20939;-65
2022/01/04 02:43:30;;;;;;;4.92;3.77;;;;;;;17.02;41.96;97977.10;1762559;80;21104;-66
2022/01/04 02:45:56;;;;;;;5.15;4.37;;;;;;;16.99;41.98;97969.53;1769066;80;21127;-65
2022/01/04 02:48:23;;;;;;;5.22;4.00;;;;;;;17.06;41.91;97974.19;1741142;82;20942;-66
2022/01/04 02:50:52;;;;;;;6.60;4.80;;;;;;;17.08;41.85;97972.88;1729716;81;20995;-64
2022/01/04 02:53:19;;;;;;;6.53;4.67;;;;;;;17.02;41.97;97983.30;1801186;78;21545;-65
2022/01/04 02:55:45;;;;;;;7.97;4.78;;;;;;;17.01;41.98;97974.94;1812099;79;20978;-65
2022/01/04 02:58:12;;;;;;;5.45;4.50;;;;;;;16.97;42.04;97983.19;1805486;78;21206;-65
2022/01/04 03:00:39;;;;;;;5.12;4.03;;;;;;;17.03;41.97;97984.90;1794787;78;21515;-64
2022/01/04 03:03:05;;;;;;;5.05;4.28;;;;;;;17.01;42.11;97980.84;1798927;78;20932;-64
2022/01/04 03:05:32;;;;;;;6.22;4.20;;;;;;;17.05;42.07;97977.95;1807115;78;20971;-65
2022/01/04 03:07:58;;;;;;;5.25;3.80;;;;;;;17.01;42.07;97977.62;1802082;79;21084;-65
2022/01/04 03:10:25;;;;;;;7.03;4.33;;;;;;;17.02;42.02;97973.89;1806497;78;21865;-65
2022/01/04 03:12:51;;;;;;;7.62;4.65;;;;;;;16.99;42.05;97978.94;1798009;78;20907;-66
2022/01/04 03:15:19;;;;;;;7.50;5.40;;;;;;;16.99;42.09;97961.47;1806195;79;20965;-65
2022/01/04 03:17:46;;;;;;;11.33;5.97;;;;;;;17.05;41.93;97959.15;1797897;78;20983;-65
2022/01/04 03:20:12;;;;;;;8.70;6.12;;;;;;;17.09;41.83;97961.09;1796701;78;20979;-66
2022/01/04 03:22:40;;;;;;;7.10;5.28;;;;;;;17.06;41.82;97952.70;1801097;78;21209;-66
2022/01/04 03:25:08;;;;;;;6.22;4.75;;;;;;;17.03;41.79;97957.22;1803089;78;20899;-64
2022/01/04 03:27:36;;;;;;;6.87;4.65;;;;;;;16.97;41.87;97949.61;1792047;79;20966;-65
2022/01/04 03:30:04;;;;;;;6.53;4.10;;;;;;;16.92;41.89;97946.07;1787202;79;21038;-65
2022/01/04 03:32:31;;;;;;;6.42;4.42;;;;;;;16.90;41.95;97951.67;1790991;79;20977;-65
2022/01/04 03:34:57;;;;;;;6.65;3.87;;;;;;;16.95;41.83;97952.27;1801264;79;21092;-64
2022/01/04 03:37:23;;;;;;;4.67;3.52;;;;;;;17.00;41.69;97951.81;1793848;79;20960;-64
2022/01/04 03:39:49;;;;;;;7.58;4.00;;;;;;;16.99;41.67;97956.10;1791057;79;21504;-66
2022/01/04 03:42:16;;;;;;;6.67;4.47;;;;;;;16.97;41.70;97950.95;1796773;79;20955;-64
2022/01/04 03:44:43;;;;;;;5.47;4.33;;;;;;;17.01;41.58;97957.48;1783413;79;20883;-64
2022/01/04 03:47:10;;;;;;;8.43;4.55;;;;;;;17.00;41.57;97959.05;1799119;79;21501;-65
2022/01/04 03:49:36;;;;;;;6.20;4.90;;;;;;;16.98;41.54;97953.94;1792134;79;20927;-65
2022/01/04 03:52:03;;;;;;;5.65;4.53;;;;;;;16.90;41.60;97953.02;1795099;79;21973;-65
2022/01/04 03:54:30;;;;;;;8.33;5.40;;;;;;;16.69;41.82;97945.72;1788906;79;20935;-65
2022/01/04 03:56:56;;;;;;;8.23;6.90;;;;;;;16.60;41.91;97945.34;1799486;79;20985;-66
2022/01/04 03:59:23;;;;;;;9.80;5.53;;;;;;;16.55;42.02;97951.16;1791059;79;22293;-66
2022/01/04 04:01:49;;;;;;;7.10;5.50;;;;;;;16.50;42.11;97951.84;1795712;79;20931;-64
2022/01/04 04:04:17;;;;;;;9.18;6.03;;;;;;;16.52;42.00;97946.25;1800522;79;21043;-65
2022/01/04 04:06:43;;;;;;;7.20;4.75;;;;;;;16.41;42.13;97933.72;1785961;79;21008;-65
2022/01/04 04:09:10;;;;;;;4.55;4.00;;;;;;;16.31;42.25;97934.89;1784312;79;20934;-66
2022/01/04 04:11:36;;;;;;;8.23;4.70;;;;;;;16.20;42.51;97939.80;1789979;79;21089;-65
2022/01/04 04:14:03;;;;;;;8.75;5.03;;;;;;;16.21;42.48;97944.13;1792040;79;20974;-65
2022/01/04 04:16:30;;;;;;;10.00;4.80;;;;;;;16.20;42.52;97944.64;1793678;79;21008;-65
2022/01/04 04:18:56;;;;;;;6.00;4.70;;;;;;;16.16;42.58;97940.02;1792689;79;20878;-66
2022/01/04 04:21:24;;;;;;;8.60;4.15;;;;;;;16.19;42.60;97940.88;1791992;79;20954;-66
2022/01/04 04:23:50;;;;;;;6.05;4.00;;;;;;;16.20;42.61;97941.14;1791565;79;21950;-66
2022/01/04 04:26:17;;;;;;;7.15;4.50;;;;;;;16.16;42.71;97942.70;1795659;79;21001;-66
2022/01/04 04:28:44;;;;;;;8.65;5.33;;;;;;;16.21;42.70;97935.55;1792944;78;20995;-66
2022/01/04 04:31:11;;;;;;;6.50;4.30;;;;;;;16.27;42.57;97939.14;1779381;79;21304;-65
2022/01/04 04:33:38;;;;;;;6.30;4.62;;;;;;;16.28;42.58;97932.70;1785181;78;20995;-65
2022/01/04 04:36:04;;;;;;;6.83;4.05;;;;;;;16.27;42.63;97929.75;1786354;78;21211;-65
2022/01/04 04:38:31;;;;;;;7.05;4.47;;;;;;;16.29;42.62;97935.67;1789479;78;20916;-64
2022/01/04 04:40:57;;;;;;;6.47;4.25;;;;;;;16.37;42.55;97948.14;1782939;79;20869;-66
2022/01/04 04:43:24;;;;;;;7.78;5.30;;;;;;;16.41;42.49;97951.16;1786207;78;20978;-65
2022/01/04 04:45:51;;;;;;;6.65;4.62;;;;;;;16.43;42.43;97943.67;1780016;79;20983;-65
2022/01/04 04:48:18;;;;;;;7.17;4.62;;;;;;;16.49;42.33;97952.09;1789056;78;21150;-65
2022/01/04 04:50:45;;;;;;;6.40;4.70;;;;;;;16.52;42.23;97956.48;1781070;78;20840;-66
2022/01/04 04:53:12;;;;;;;5.97;3.95;;;;;;;16.52;42.21;97956.48;1784211;78;21093;-65
2022/01/04 04:55:38;;;;;;;4.90;3.83;;;;;;;16.56;42.07;97951.42;1789008;79;21513;-65
2022/01/04 04:58:04;;;;;;;5.45;4.08;;;;;;;16.52;42.14;97956.48;1787860;78;20872;-64
2022/01/04 05:00:31;;;;;;;8.33;4.37;;;;;;;16.52;42.12;97961.86;1790622;79;21147;-66
2022/01/04 05:02:57;;;;;;;8.05;4.92;;;;;;;16.54;42.10;97965.63;1784841;79;20860;-65
2022/01/04 05:05:24;;;;;;;7.60;5.72;;;;;;;16.52;42.08;97955.15;1783516;78;21496;-65
2022/01/04 05:07:51;;;;;;;8.25;5.22;;;;;;;16.62;41.97;97959.33;1779974;78;20987;-65
2022/01/04 05:10:17;;;;;;;8.28;5.40;;;;;;;16.60;41.99;97957.95;1784591;79;21077;-66
2022/01/04 05:12:45;;;;;;;5.42;4.80;;;;;;;16.58;42.02;97949.33;1779132;78;21379;-66
2022/01/04 05:15:12;;;;;;;9.68;6.00;;;;;;;16.56;42.07;97948.74;1787670;78;20919;-64
2022/01/04 05:17:40;;;;;;;8.53;5.08;;;;;;;16.58;42.04;97958.73;1779919;79;21496;-66
2022/01/04 05:20:08;;;;;;;6.70;4.70;;;;;;;16.58;42.02;97949.33;1776107;79;20866;-65
2022/01/04 05:22:34;;;;;;;6.53;4.45;;;;;;;16.61;41.97;97947.47;1785648;78;20875;-64
2022/01/04 05:25:03;;;;;;;5.92;4.05;;;;;;;16.66;41.90;97944.34;1777203;78;22676;-66
2022/01/04 05:27:31;;;;;;;8.60;4.12;;;;;;;16.68;41.85;97940.09;1786909;78;20935;-67
2022/01/04 05:29:58;;;;;;;7.25;4.15;;;;;;;16.71;41.89;97942.28;1738541;82;20855;-66
2022/01/04 05:32:24;;;;;;;10.48;4.70;;;;;;;16.73;41.81;97945.53;1712417;82;21024;-63
2022/01/04 05:34:50;;;;;;;7.28;4.45;;;;;;;16.74;41.82;97949.03;1736439;80;20944;-62
2022/01/04 05:37:17;;;;;;;6.50;4.47;;;;;;;16.78;41.71;97945.60;1773664;79;21150;-67
2022/01/04 05:39:44;;;;;;;5.40;4.22;;;;;;;16.80;41.67;97946.69;1775025;79;20949;-65
2022/01/04 05:42:10;;;;;;;7.80;4.30;;;;;;;16.82;41.62;97941.88;1781518;79;20974;-64
2022/01/04 05:44:37;;;;;;;6.92;4.40;;;;;;;16.85;41.48;97943.55;1775911;79;20922;-66
2022/01/04 05:47:07;;;;;;;7.17;4.42;;;;;;;16.88;41.39;97943.58;1774636;79;21441;-67
2022/01/04 05:49:33;;;;;;;8.23;5.17;;;;;;;16.93;41.28;97947.16;1772959;79;21056;-65
2022/01/04 05:52:00;;;;;;;7.72;4.47;;;;;;;16.89;41.34;97946.04;1770258;79;20924;-65
2022/01/04 05:54:26;;;;;;;11.57;5.40;;;;;;;17.06;41.08;97958.07;1780707;79;21477;-67
2022/01/04 05:56:53;;;;;;;9.63;5.75;;;;;;;17.13;40.92;97954.66;1778734;79;21030;-65
2022/01/04 05:59:19;;;;;;;8.78;5.53;;;;;;;17.15;40.81;97957.94;1776186;79;20943;-66
2022/01/04 06:01:46;;;;;;;9.38;6.20;;;;;;;17.08;40.90;97959.97;1771970;79;21147;-66
2022/01/04 06:04:12;;;;;;;8.55;5.97;;;;;;;17.12;40.86;97961.12;1778188;79;20935;-65
2022/01/04 06:06:41;;;;;;;10.38;6.40;;;;;;;17.22;40.64;97962.07;1777833;79;20966;-65
2022/01/04 06:09:17;;;;;;;7.28;5.17;;;;;;;17.21;40.66;97958.27;1777814;79;20887;-67
2022/01/04 06:16:51;;;;;;;7.28;5.83;;;;;;;17.15;40.63;97957.38;1772718;79;21030;-72
2022/01/04 06:19:18;;;;;;;10.35;6.60;;;;;;;17.17;40.63;97959.84;1777973;79;21223;-68
2022/01/04 06:21:44;;;;;;;8.40;6.87;;;;;;;17.24;40.48;97957.25;1775485;79;20992;-66
2022/01/04 06:24:11;;;;;;;12.45;7.17;;;;;;;17.35;40.32;97953.34;1774008;79;20976;-68
2022/01/04 06:26:38;;;;;;;10.78;6.53;;;;;;;17.29;40.41;97958.66;1775101;79;21145;-65
2022/01/04 06:29:08;;;;;;;12.40;7.15;;;;;;;17.33;40.26;97960.85;1796117;78;20911;-67
2022/01/04 06:31:34;;;;;;;14.43;8.58;;;;;;;17.37;40.19;97967.34;1805282;78;20883;-67
2022/01/04 06:34:01;;;;;;;12.85;8.15;;;;;;;17.38;40.14;97964.42;1811099;78;21112;-67
2022/01/04 06:36:29;;;;;;;10.75;7.25;;;;;;;17.38;40.14;97959.05;1801726;78;20978;-66
2022/01/04 06:38:55;;;;;;;11.33;6.85;;;;;;;17.45;39.99;97958.31;1812572;78;21110;-65
2022/01/04 06:41:22;;;;;;;10.03;6.53;;;;;;;17.51;39.92;97960.53;1809386;78;21529;-67
2022/01/04 06:43:48;;;;;;;7.40;5.47;;;;;;;17.55;39.84;97961.15;1802873;78;21740;-68
2022/01/04 06:46:14;;;;;;;7.97;5.70;;;;;;;17.54;39.83;97966.27;1800595;78;21520;-64
2022/01/04 06:48:42;;;;;;;7.75;5.22;;;;;;;17.56;39.76;97963.31;1809198;78;21013;-68
2022/01/04 06:51:09;;;;;;;7.50;5.75;;;;;;;17.56;39.70;97962.79;1815131;78;21149;-67
2022/01/04 06:53:37;;;;;;;8.73;5.60;;;;;;;17.60;39.57;97953.14;1804268;78;20920;-66
2022/01/04 06:56:05;;;;;;;6.83;5.28;;;;;;;17.57;39.60;97960.92;1802106;78;20986;-66
2022/01/04 06:58:33;;;;;;;6.95;4.72;;;;;;;17.70;39.38;97958.63;1773779;80;20911;-67
2022/01/04 07:01:01;;;;;;;7.95;5.85;;;;;;;17.66;39.43;97956.18;1735775;81;21010;-70
2022/01/04 07:03:27;;;;;;;8.20;5.47;;;;;;;17.58;39.50;97962.52;1769196;80;21136;-66
2022/01/04 07:05:53;;;;;;;8.68;5.78;;;;;;;17.54;39.58;97964.11;1755802;81;20931;-67
2022/01/04 07:08:24;;;;;;;8.90;5.28;;;;;;;17.53;39.56;97963.28;1752656;81;20990;-67
2022/01/04 07:10:52;;;;;;;7.65;5.58;;;;;;;17.51;39.60;97959.19;1767622;80;21539;-67
2022/01/04 07:13:18;;;;;;;10.63;5.67;;;;;;;17.47;39.66;97960.77;1775748;80;20946;-68
2022/01/04 07:15:46;;;;;;;6.15;5.22;;;;;;;17.49;39.66;97965.36;1758482;80;21130;-67
2022/01/04 07:18:14;;;;;;;9.35;6.45;;;;;;;17.54;39.60;97967.61;1775137;80;21025;-66
2022/01/04 07:20:42;;;;;;;11.05;6.45;;;;;;;17.63;39.44;97959.37;1752333;81;21567;-66
2022/01/04 07:23:09;;;;;;;12.28;6.30;;;;;;;17.71;39.33;97964.83;1743635;82;20946;-68
2022/01/04 07:25:35;;;;;;;7.90;5.97;;;;;;;17.81;39.13;97967.63;1748779;81;21080;-66
2022/01/04 07:28:02;;;;;;;9.18;5.87;;;;;;;17.90;38.90;97962.09;1776712;80;21525;-66
2022/01/04 07:30:32;;;;;;;11.80;6.65;;;;;;;17.85;38.94;97964.73;1754307;80;21061;-67
2022/01/04 07:32:58;;;;;;;11.75;6.72;;;;;;;17.85;38.97;97971.45;1759734;81;21029;-67
2022/01/04 07:35:25;;;;;;;8.78;6.70;;;;;;;17.91;38.88;97966.38;1757252;80;21607;-64
2022/01/04 07:37:51;;;;;;;13.43;8.60;;;;;;;17.91;38.78;97966.94;1749707;81;20934;-66
2022/01/04 07:40:18;;;;;;;10.80;7.75;;;;;;;17.89;38.75;97967.17;1749970;81;21186;-67
2022/01/04 07:42:44;;;;;;;12.40;6.78;;;;;;;17.86;38.78;97962.30;1751176;81;21642;-66
2022/01/04 07:45:11;;;;;;;9.63;6.08;;;;;;;17.88;38.76;97965.57;1750048;81;20994;-67
2022/01/04 07:47:37;;;;;;;12.07;7.37;;;;;;;17.88;38.75;97962.33;1749612;81;20970;-65
2022/01/04 07:50:05;;;;;;;11.30;8.20;;;;;;;17.89;38.81;97959.11;1736527;81;20955;-65
2022/01/04 07:52:33;;;;;;;12.18;7.30;;;;;;;17.95;38.70;97962.66;1743230;81;21143;-66
2022/01/04 07:55:00;;;;;;;12.53;8.60;;;;;;;18.04;38.56;97968.67;1750976;81;20911;-65
2022/01/04 07:57:27;;;;;;;13.25;8.55;;;;;;;18.04;38.56;97963.29;1751283;81;20974;-69
2022/01/04 07:59:55;;;;;;;13.53;8.25;;;;;;;18.03;38.54;97963.55;1750609;81;21513;-67
2022/01/04 08:02:22;;;;;;;15.95;10.18;;;;;;;18.05;38.46;97966.27;1747001;81;21087;-67
2022/01/04 08:04:48;;;;;;;12.63;9.05;;;;;;;18.08;38.38;97972.50;1751388;81;21398;-67
2022/01/04 08:07:15;;;;;;;8.80;7.10;;;;;;;17.99;38.44;97971.88;1747670;81;21002;-67
2022/01/04 08:09:43;;;;;;;9.13;5.92;;;;;;;17.96;38.44;97960.27;1754406;81;21662;-66
2022/01/04 08:12:11;;;;;;;8.55;5.90;;;;;;;17.94;38.45;97969.12;1748140;81;21471;-68
2022/01/04 08:14:37;;;;;;;8.18;5.70;;;;;;;17.90;38.50;97968.81;1747502;81;20934;-67
2022/01/04 08:17:04;;;;;;;9.35;5.00;;;;;;;17.93;38.50;97971.00;1750349;81;21071;-67
2022/01/04 08:19:31;;;;;;;5.67;4.78;;;;;;;18.04;38.40;97975.40;1749115;81;21001;-65
2022/01/04 08:21:57;;;;;;;9.23;4.97;;;;;;;18.10;38.29;97970.36;1742607;81;20851;-66
2022/01/04 08:24:24;;;;;;;8.48;5.03;;;;;;;18.20;38.13;97969.62;1739591;81;21620;-68
2022/01/04 08:26:50;;;;;;;8.03;5.70;;;;;;;18.24;38.13;97968.07;1748240;81;20994;-66
2022/01/04 08:29:16;;;;;;;6.67;4.58;;;;;;;18.30;38.09;97967.06;1737457;81;21799;-65
2022/01/04 08:31:42;;;;;;;7.60;4.40;;;;;;;18.44;37.91;97965.55;1734254;82;20985;-68
2022/01/04 08:34:09;;;;;;;6.87;4.72;;;;;;;18.47;37.78;97959.69;1729854;82;20946;-65
2022/01/04 08:36:37;;;;;;;6.83;4.75;;;;;;;18.62;37.56;97966.53;1726350;82;21006;-66
2022/01/04 08:39:04;;;;;;;6.42;4.10;;;;;;;18.64;37.53;97967.08;1732746;82;21432;-65
2022/01/04 08:41:30;;;;;;;6.03;4.15;;;;;;;18.65;37.45;97962.51;1729951;82;21095;-65
2022/01/04 08:43:57;;;;;;;8.45;6.22;;;;;;;18.68;37.41;97964.16;1730698;82;20993;-67
2022/01/04 08:46:23;;;;;;;7.53;5.03;;;;;;;18.66;37.35;97963.62;1731397;82;21464;-66
2022/01/04 08:48:50;;;;;;;7.83;5.20;;;;;;;18.63;37.30;97958.73;1727441;82;21086;-67
2022/01/04 08:51:16;;;;;;;5.87;4.40;;;;;;;18.63;37.32;97960.61;1728715;82;21042;-66
2022/01/04 08:53:43;;;;;;;10.90;6.72;;;;;;;18.59;37.33;97960.31;1725830;81;21085;-65
2022/01/04 08:56:09;;;;;;;8.13;5.72;;;;;;;18.64;37.23;97977.06;1727751;81;21019;-66
2022/01/04 08:58:36;;;;;;;9.00;6.58;;;;;;;18.69;37.16;97962.28;1726572;82;21052;-67
2022/01/04 09:01:02;;;;;;;7.15;5.62;;;;;;;18.97;37.01;97964.63;1726026;81;21495;-65
2022/01/04 09:03:31;;;;;;;7.03;4.72;;;;;;;19.29;36.86;97961.31;1728166;82;20942;-69
2022/01/04 09:05:58;;;;;;;5.40;4.12;;;;;;;19.69;36.58;97952.05;1726593;82;21988;-65
2022/01/04 09:08:25;;;;;;;7.20;5.20;;;;;;;20.11;35.96;97953.77;1726976;82;21005;-67
2022/01/04 09:10:51;;;;;;;6.12;4.30;;;;;;;20.41;35.27;97957.89;1725337;82;21094;-66
2022/01/04 09:13:22;;;;;;;8.43;5.37;;;;;;;20.52;34.78;97947.34;1727767;82;21496;-66
2022/01/04 09:20:59;;;;;;;5.90;4.15;;;;;;;20.07;34.75;97941.36;1732188;82;20966;-65
2022/01/04 09:23:25;;;;;;;7.42;4.50;;;;;;;19.92;34.96;97940.52;1732536;82;21080;-65
2022/01/04 09:25:52;;;;;;;7.87;4.85;;;;;;;19.92;34.95;97941.88;1731015;82;20990;-64
2022/01/04 09:28:21;;;;;;;5.97;4.37;;;;;;;19.85;35.00;97936.72;1729421;82;21081;-63
2022/01/04 09:30:50;;;;;;;10.15;6.10;;;;;;;19.68;35.16;97941.54;1741437;81;21830;-65
2022/01/04 09:33:17;;;;;;;8.05;5.95;;;;;;;19.62;35.24;97932.62;1734558;81;20947;-63
2022/01/04 09:35:44;;;;;;;9.35;5.58;;;;;;;19.48;35.48;97931.48;1734292;81;21126;-63
2022/01/04 09:38:13;;;;;;;9.33;5.33;;;;;;;19.32;35.79;97932.45;1729590;81;21035;-63
2022/01/04 09:40:41;;;;;;;5.97;4.45;;;;;;;19.21;36.06;97927.30;1723392;82;21529;-64
2022/01/04 09:43:08;;;;;;;7.17;4.67;;;;;;;19.13;36.19;97929.14;1738076;81;21161;-65
2022/01/04 09:45:36;;;;;;;8.85;4.85;;;;;;;19.10;36.32;97926.44;1726002;81;20852;-65
2022/01/04 09:48:04;;;;;;;5.53;4.00;;;;;;;19.18;36.29;97925.94;1745597;81;20987;-66
2022/01/04 09:50:32;;;;;;;6.00;4.30;;;;;;;19.09;36.39;97924.27;1743219;81;21025;-65
2022/01/04 09:52:59;;;;;;;6.20;4.00;;;;;;;19.06;36.89;97925.32;1739890;80;20966;-66
2022/01/04 09:55:25;;;;;;;11.65;5.28;;;;;;;19.20;37.06;97921.09;1775352;79;21833;-65
2022/01/04 09:57:54;;;;;;;7.35;5.35;;;;;;;19.34;36.85;97918.73;1774470;78;20958;-64
2022/01/04 10:00:21;;;;;;;6.05;4.47;;;;;;;19.42;36.67;97919.04;1767347;78;21001;-65
2022/01/04 10:02:52;;;;;;;7.95;3.15;;;;;;;19.43;36.50;97911.77;1764349;80;21465;-65
2022/01/04 10:05:22;;;;;;;4.22;3.62;;;;;;;19.34;36.49;97903.91;1777049;80;21539;-63
2022/01/04 10:07:59;;;;;;;3.25;2.95;;;;;;;19.26;36.64;97897.13;1779760;78;21119;-65
2022/01/04 10:10:28;;;;;;;4.28;3.40;;;;;;;19.22;36.64;97885.23;1769708;80;21505;-65
2022/01/04 10:13:01;;;;;;;6.50;3.37;;;;;;;19.23;36.61;97897.66;1773362;78;21529;-64
2022/01/04 10:15:35;;;;;;;5.62;3.35;;;;;;;19.15;36.66;97897.34;1756699;78;20958;-65
2022/01/04 10:18:16;;;;;;;6.00;2.80;;;;;;;19.14;36.63;97895.73;1781114;78;20986;-64
2022/01/04 10:20:47;;;;;;;3.67;2.52;;;;;;;19.07;36.73;97891.92;1772786;78;21139;-65
2022/01/04 10:23:21;;;;;;;7.33;4.70;;;;;;;19.02;36.83;97887.33;1768021;79;20832;-65
2022/01/04 10:25:51;;;;;;;4.87;3.20;;;;;;;19.17;37.88;97885.22;1772834;78;20988;-65
2022/01/04 10:28:36;;;;;;;3.50;2.70;;;;;;;19.32;37.31;97881.80;1775841;78;21533;-65
2022/01/04 10:31:07;;;;;;;4.80;3.00;;;;;;;19.44;36.89;97877.00;1799950;78;21020;-64
2022/01/04 10:33:34;;;;;;;4.40;2.90;;;;;;;19.60;36.35;97870.05;1808374;79;21543;-64
2022/01/04 10:36:07;;;;;;;2.52;2.17;;;;;;;19.54;36.30;97867.58;1806948;78;20974;-64
2022/01/04 10:38:34;;;;;;;5.80;5.08;;;;;;;19.52;36.20;97867.86;1804039;79;20997;-63
2022/01/04 10:41:08;;;;;;;7.30;6.47;;;;;;;19.66;37.42;97854.12;1801453;78;20891;-63
2022/01/04 10:43:44;;;;;;;7.28;6.00;;;;;;;20.26;37.82;97856.61;1809997;78;20922;-61
2022/01/04 10:46:11;;;;;;;5.58;3.30;;;;;;;20.85;37.69;97849.49;1804472;78;24938;-64
2022/01/04 10:48:43;;;;;;;4.53;2.98;;;;;;;21.12;36.18;97845.65;1767645;80;20915;-64
2022/01/04 10:51:21;;;;;;;3.20;2.90;;;;;;;21.10;35.18;97841.85;1761797;80;21019;-62
2022/01/04 10:53:54;;;;;;;5.15;4.00;;;;;;;21.04;34.75;97836.73;1769644;80;21571;-63
2022/01/04 10:56:34;;;;;;;4.35;3.37;;;;;;;21.11;35.42;97830.50;1772392;80;21503;-61
2022/01/04 10:59:06;;;;;;;2.95;2.58;;;;;;;21.60;35.72;97831.31;1768635;80;21460;-63
2022/01/04 11:01:44;;;;;;;3.95;2.67;;;;;;;21.74;34.41;97829.61;1790456;78;21064;-63
2022/01/04 11:04:16;;;;;;;3.40;2.62;;;;;;;21.70;33.81;97827.72;1767335;80;20940;-63
2022/01/04 11:06:49;;;;;;;3.12;2.52;;;;;;;21.57;33.67;97815.63;1762768;80;21413;-62
2022/01/04 11:09:20;;;;;;;4.35;3.30;;;;;;;21.63;33.41;97813.17;1806476;78;21389;-64
2022/01/04 11:11:52;;;;;;;5.22;3.00;;;;;;;21.68;33.30;97814.48;1804552;78;20938;-64
2022/01/04 11:14:21;;;;;;;3.98;3.00;;;;;;;21.65;33.17;97819.64;1806000;79;21580;-66
2022/01/04 11:16:49;;;;;;;3.98;2.85;;;;;;;21.63;33.09;97810.47;1803574;78;20918;-60
2022/01/04 11:19:19;;;;;;;4.05;3.02;;;;;;;21.65;33.06;97802.05;1811440;78;20891;-65
2022/01/04 11:21:48;;;;;;;5.25;3.60;;;;;;;21.63;33.10;97809.11;1779371;79;21454;-63
2022/01/04 11:24:17;;;;;;;7.33;4.35;;;;;;;21.57;33.18;97809.41;1809217;79;21518;-64
2022/01/04 11:26:48;;;;;;;4.08;3.17;;;;;;;21.57;33.24;97803.45;1805739;78;20920;-61
2022/01/04 11:29:15;;;;;;;4.25;3.08;;;;;;;21.53;33.17;97811.31;1798664;78;20871;-62
2022/01/04 11:32:03;;;;;;;4.03;3.35;;;;;;;21.46;33.26;97810.02;1787866;79;20970;-64
2022/01/04 11:34:49;;;;;;;3.83;2.87;;;;;;;21.53;33.18;97824.06;1787750;79;20904;-66
2022/01/04 11:37:21;;;;;;;3.62;2.70;;;;;;;21.35;33.33;97820.08;1758462;81;21135;-63
2022/01/04 11:39:48;;;;;;;2.37;2.15;;;;;;;21.18;33.48;97801.25;1759062;81;21047;-67
2022/01/04 11:42:35;;;;;;;2.55;2.20;;;;;;;21.11;33.62;97792.65;1756688;80;21415;-65
2022/01/04 11:45:04;;;;;;;2.72;2.20;;;;;;;21.03;33.72;97787.79;1751444;81;20908;-64
2022/01/04 11:47:35;;;;;;;3.33;2.00;;;;;;;20.87;33.93;97785.16;1761586;80;20971;-62